DLH6SA ZZZZ-EDDF
Flight info
| Callsign | DLH6SA |
|---|---|
| Flight time | N/A |
| Altitude | 20000 |
| Route | MARUN9S/18 MARUN Y152 ARPEG Z850 ADEMI T854 DOMUX DOMUX1A |
| Aircraft | A21N/M-SDE2E3FGHIRWXY/LB1 |
Departure
| Time | N/A |
|---|---|
| Airport | ZZZZ |
Arrival
| Time | 2026-05-04 20:56 |
|---|---|
| Airport | Frankfurt Main Airport (EDDF) |
| Time | Latitude | Longitude | Altitude | Speed | Heading |
|---|---|---|---|---|---|
| 2026-05-04 20:55 | 50.04187 | 8.52628 | 367 ft | 36 kts | 70° |
| 2026-05-04 20:56 | 50.04283 | 8.53005 | 374 ft | 39 kts | 71° |
| 2026-05-04 20:56 | 50.04360 | 8.53385 | 380 ft | 31 kts | 59° |
| 2026-05-04 20:56 | 50.04409 | 8.53711 | 380 ft | 32 kts | 84° |
| 2026-05-04 20:56 | 50.04436 | 8.54064 | 383 ft | 34 kts | 85° |
| 2026-05-04 20:57 | 50.04455 | 8.54422 | 354 ft | 32 kts | 88° |
| 2026-05-04 20:57 | 50.04358 | 8.54730 | 357 ft | 34 kts | 144° |
| 2026-05-04 20:57 | 50.04139 | 8.54870 | 362 ft | 31 kts | 158° |
| 2026-05-04 20:57 | 50.04055 | 8.54921 | 364 ft | 11 kts | 160° |
| 2026-05-04 20:58 | 50.04019 | 8.55028 | 366 ft | 14 kts | 74° |
| 2026-05-04 20:58 | 50.04059 | 8.55176 | 368 ft | 16 kts | 70° |
| 2026-05-04 20:58 | 50.04098 | 8.55346 | 366 ft | 18 kts | 70° |
| 2026-05-04 20:58 | 50.04155 | 8.55572 | 367 ft | 25 kts | 70° |
| 2026-05-04 20:59 | 50.04213 | 8.55837 | 361 ft | 26 kts | 69° |
| 2026-05-04 20:59 | 50.04280 | 8.56107 | 355 ft | 27 kts | 70° |
| 2026-05-04 20:59 | 50.04346 | 8.56393 | 358 ft | 29 kts | 69° |
| 2026-05-04 20:59 | 50.04416 | 8.56691 | 360 ft | 30 kts | 70° |
| 2026-05-04 21:00 | 50.04460 | 8.56842 | 357 ft | 15 kts | 43° |
| 2026-05-04 21:00 | 50.04563 | 8.56895 | 355 ft | 17 kts | 14° |
| 2026-05-04 21:00 | 50.04628 | 8.56912 | 357 ft | 7 kts | 325° |
| 2026-05-04 21:00 | 50.04649 | 8.56831 | 363 ft | 9 kts | 295° |
| 2026-05-04 21:01 | 50.04655 | 8.56810 | 363 ft | 0 kts | 292° |